This is the latest recevied weather packets stored in our database for station/object WX3I. If no packets are shown the sender has not sent any weather packets the latest 10 day(s).
| Time | Temp. | Humidity | Pressure | Rain* | Wind** | Luminosity | Snow |
|---|---|---|---|---|---|---|---|
| 1778099404 | 18.33° C | 83% | 1008.9 hPa | 0 mm | - | 811 W/m² | - |
| 1778092204 | 16.11° C | 91% | 1009.9 hPa | 0 mm | - | 1006 W/m² | - |
| 1778091004 | 16.11° C | 90% | 1009.9 hPa | 0 mm | - | 1177 W/m² | - |
| 1778089804 | 16.11° C | 90% | 1010 hPa | 0.25 mm | - | 1193 W/m² | - |
| 1778089204 | 16.11° C | 90% | 1010 hPa | 0.25 mm | - | 1198 W/m² | - |
| 1778085604 | 16.11° C | 92% | 1010.1 hPa | 2.03 mm | - | 1167 W/m² | - |
| 1778085004 | 15.56° C | 93% | 1010.3 hPa | 2.03 mm | - | 1153 W/m² | - |
| 1778084704 | 15.56° C | 93% | 1010.1 hPa | 1.78 mm | - | 1145 W/m² | - |
| 1778084104 | 15.56° C | 93% | 1010.4 hPa | 2.54 mm | - | 1127 W/m² | - |
| 1778083804 | 15.56° C | 93% | 1010.8 hPa | 3.05 mm | - | 1117 W/m² | - |
| 1778083205 | 15.56° C | 93% | 1011.2 hPa | 3.56 mm | - | 1096 W/m² | - |
| 1778082004 | 15.56° C | 91% | 1011.5 hPa | 2.79 mm | - | 915 W/m² | - |
| 1778081405 | 16.11° C | 90% | 1011.4 hPa | 3.05 mm | - | 1018 W/m² | - |
| 1778080204 | 16.67° C | 87% | 1011.5 hPa | 2.29 mm | - | 838 W/m² | - |
| 1778079604 | 16.67° C | 87% | 1011.5 hPa | 1.78 mm | - | 925 W/m² | - |
| 1778079304 | 16.67° C | 87% | 1011.5 hPa | 1.52 mm | - | 908 W/m² | - |
| 1778076905 | 17.78° C | 78% | 1011.6 hPa | 0.25 mm | - | 701 W/m² | - |
| 1778076305 | 18.33° C | 76% | 1011.4 hPa | 0.25 mm | - | 723 W/m² | - |
| 1778073304 | 18.33° C | 74% | 1011.3 hPa | 0 mm | - | 525 W/m² | - |
| 1778072704 | 18.33° C | 73% | 1011.5 hPa | 0 mm | - | 486 W/m² | - |
| 1778069404 | 17.78° C | 73% | 1011.1 hPa | 0 mm | - | 280 W/m² | - |
| 1778067005 | 17.78° C | 75% | 1011 hPa | 0 mm | - | 124 W/m² | - |
| 1778064904 | 17.22° C | 76% | 1010.9 hPa | 0 mm | - | 53 W/m² | - |
| 1778062504 | 17.78° C | 76% | 1010.8 hPa | 0 mm | - | 12 W/m² | - |
| 1778060704 | 17.78° C | 76% | 1010.8 hPa | 0 mm | - | 0 W/m² | - |
* Rain latest hour (hover to see other rain measurements)
** Current wind speed in m/s (hover to see current wind gust speed)